Hickory Ridge, AR (72347)

7:59 AM CST on February 28, 2015 (GMT -0600)
Boward and Wofford | Change Station
CLOSE
Current Station
Personal Weather Station
Location: Waldenburg, AR
Elevation: 243 ft
Nearby Weather Stations

Elev 243 ft 35.57 °N, 90.90 °W | Updated 4 minutes ago

Overcast
Overcast
26.5 °F
Feels Like 14 °F
N
16.0
Wind Variable Wind from ENE
Gusts 19.0 mph

Today
High -- | Low -- °F
--% Chance of Precip.
Yesterday
High -- | Low -- °F
Precip. -- in
6:35 AM 5:58 PM
Waxing Gibbous, 77% visible
Pressure 30.61 in
Visibility 10.0 miles
Clouds Overcast 4800 ft
Windchill 14 °F
Dew Point 21 °F
Humidity 80%
Rainfall 0.00 in
Snow Depth Not available.
UV 0 out of 12
Pollen 4.50 out of 12
Air Quality Not available.
Flu Activity Not available.
METAR KM19 281256Z AUTO 04012KT 10SM OVC048 M04/M07 A3060 RMK AO2 T10441066 SLP364

More Conditions Fewer Conditions

Pressure 30.61 in
Visibility 10.0 miles
Clouds Overcast 4800 ft
Windchill 14 °F
Dew Point 21 °F
Humidity 80%
Rainfall 0.00 in
Snow Depth Not available.
UV 0 out of 12
Pollen 4.50 out of 12
Air Quality Not available.
Flu Activity Not available.
METAR KM19 281256Z AUTO 04012KT 10SM OVC048 M04/M07 A3060 RMK AO2 T10441066 SLP364

More Conditions Fewer Conditions

10-Day Weather Forecast

Almanac

Astronomy

Feb. 28, 2015 Rise Set
Actual Time
Civil Twilight
Nautical Twilight
Astronomical Twilight
Moon
Length of Visible Light
Length of Day
Tomorrow will be .
, % of the Moon is Illuminated

Today's Extremes

State Highs State Lows

Community

WunderPhotos

Upload Photos

1,801,014 photos uploaded!

WunderBlogs® & News

Nearby

Air Quality

  Air Quality AQ Index Pollutant
Not available.

Snow Depth

Station Depth Elevation

Earthquake Activity

City Distance Mag. Time & Date
Minimum magnitude displayed is 2.5.

Coastal Water Temperatures

Place Temperature

Nearby Weather Stations